sensor_id;sensor_type;location;lat;lon;timestamp;P1;durP1;ratioP1;P2;durP2;ratioP2
75798;SDS011;65035;44.726;37.764;2023-02-21T00:00:50;1.45;;;0.17;;
75798;SDS011;65035;44.726;37.764;2023-02-21T00:02:12;1.55;;;0.43;;
75798;SDS011;65035;44.726;37.764;2023-02-21T00:03:33;1.08;;;0.20;;
75798;SDS011;65035;44.726;37.764;2023-02-21T00:04:55;1.30;;;0.20;;
75798;SDS011;65035;44.726;37.764;2023-02-21T00:06:16;1.33;;;0.00;;
75798;SDS011;65035;44.726;37.764;2023-02-21T00:07:37;1.58;;;0.32;;
75798;SDS011;65035;44.726;37.764;2023-02-21T00:08:58;0.65;;;0.28;;
75798;SDS011;65035;44.726;37.764;2023-02-21T00:10:20;0.93;;;0.82;;
75798;SDS011;65035;44.726;37.764;2023-02-21T00:11:41;0.93;;;0.10;;
75798;SDS011;65035;44.726;37.764;2023-02-21T00:13:03;0.90;;;0.10;;
75798;SDS011;65035;44.726;37.764;2023-02-21T00:14:25;0.80;;;0.13;;
75798;SDS011;65035;44.726;37.764;2023-02-21T00:15:46;0.82;;;0.35;;
75798;SDS011;65035;44.726;37.764;2023-02-21T00:17:07;1.10;;;0.20;;
75798;SDS011;65035;44.726;37.764;2023-02-21T00:18:32;0.93;;;0.00;;
75798;SDS011;65035;44.726;37.764;2023-02-21T00:19:56;0.93;;;0.30;;
75798;SDS011;65035;44.726;37.764;2023-02-21T00:21:19;0.82;;;0.17;;
75798;SDS011;65035;44.726;37.764;2023-02-21T00:22:41;0.68;;;0.30;;
75798;SDS011;65035;44.726;37.764;2023-02-21T00:24:03;0.85;;;0.10;;
75798;SDS011;65035;44.726;37.764;2023-02-21T00:25:24;1.55;;;0.20;;
75798;SDS011;65035;44.726;37.764;2023-02-21T00:26:45;0.95;;;0.20;;
75798;SDS011;65035;44.726;37.764;2023-02-21T00:28:06;0.88;;;0.20;;
75798;SDS011;65035;44.726;37.764;2023-02-21T00:29:27;0.88;;;0.22;;
75798;SDS011;65035;44.726;37.764;2023-02-21T00:30:49;0.88;;;0.20;;
75798;SDS011;65035;44.726;37.764;2023-02-21T00:32:10;0.77;;;0.28;;
75798;SDS011;65035;44.726;37.764;2023-02-21T00:33:34;0.40;;;0.00;;
75798;SDS011;65035;44.726;37.764;2023-02-21T00:34:56;1.23;;;0.30;;
75798;SDS011;65035;44.726;37.764;2023-02-21T00:36:17;0.60;;;0.20;;
75798;SDS011;65035;44.726;37.764;2023-02-21T00:37:38;1.00;;;0.13;;
75798;SDS011;65035;44.726;37.764;2023-02-21T00:38:59;0.70;;;0.10;;
75798;SDS011;65035;44.726;37.764;2023-02-21T00:40:21;1.45;;;0.30;;
75798;SDS011;65035;44.726;37.764;2023-02-21T00:41:42;1.23;;;0.30;;
75798;SDS011;65035;44.726;37.764;2023-02-21T00:43:03;0.73;;;0.10;;
75798;SDS011;65035;44.726;37.764;2023-02-21T00:44:25;1.20;;;0.20;;
75798;SDS011;65035;44.726;37.764;2023-02-21T00:45:46;0.88;;;0.20;;
75798;SDS011;65035;44.726;37.764;2023-02-21T00:47:07;2.80;;;0.20;;
75798;SDS011;65035;44.726;37.764;2023-02-21T00:48:29;0.50;;;0.38;;
75798;SDS011;65035;44.726;37.764;2023-02-21T00:49:51;0.93;;;0.10;;
75798;SDS011;65035;44.726;37.764;2023-02-21T00:51:12;1.27;;;0.30;;
75798;SDS011;65035;44.726;37.764;2023-02-21T00:52:34;0.60;;;0.10;;
75798;SDS011;65035;44.726;37.764;2023-02-21T00:53:55;0.88;;;0.25;;
75798;SDS011;65035;44.726;37.764;2023-02-21T00:55:16;0.82;;;0.20;;
75798;SDS011;65035;44.726;37.764;2023-02-21T00:56:37;0.77;;;0.10;;
75798;SDS011;65035;44.726;37.764;2023-02-21T00:57:59;1.10;;;0.10;;
75798;SDS011;65035;44.726;37.764;2023-02-21T00:59:20;0.40;;;0.00;;
75798;SDS011;65035;44.726;37.764;2023-02-21T01:00:41;0.52;;;0.00;;
75798;SDS011;65035;44.726;37.764;2023-02-21T01:02:03;1.27;;;0.30;;
75798;SDS011;65035;44.726;37.764;2023-02-21T01:03:25;1.30;;;0.32;;
75798;SDS011;65035;44.726;37.764;2023-02-21T01:04:46;0.80;;;0.17;;
75798;SDS011;65035;44.726;37.764;2023-02-21T01:06:08;1.17;;;0.32;;
75798;SDS011;65035;44.726;37.764;2023-02-21T01:07:30;0.85;;;0.10;;
75798;SDS011;65035;44.726;37.764;2023-02-21T01:08:52;0.77;;;0.30;;
75798;SDS011;65035;44.726;37.764;2023-02-21T01:10:13;1.00;;;0.13;;
75798;SDS011;65035;44.726;37.764;2023-02-21T01:11:34;1.13;;;0.00;;
75798;SDS011;65035;44.726;37.764;2023-02-21T01:12:55;0.80;;;0.20;;
75798;SDS011;65035;44.726;37.764;2023-02-21T01:14:17;0.82;;;0.22;;
75798;SDS011;65035;44.726;37.764;2023-02-21T01:15:38;1.23;;;0.25;;
75798;SDS011;65035;44.726;37.764;2023-02-21T01:16:59;0.70;;;0.13;;
75798;SDS011;65035;44.726;37.764;2023-02-21T01:18:21;0.82;;;0.10;;
75798;SDS011;65035;44.726;37.764;2023-02-21T01:19:43;0.70;;;0.10;;
75798;SDS011;65035;44.726;37.764;2023-02-21T01:21:05;0.50;;;0.22;;
75798;SDS011;65035;44.726;37.764;2023-02-21T01:22:27;0.90;;;0.17;;
75798;SDS011;65035;44.726;37.764;2023-02-21T01:23:49;1.10;;;0.20;;
75798;SDS011;65035;44.726;37.764;2023-02-21T01:25:11;0.82;;;0.30;;
75798;SDS011;65035;44.726;37.764;2023-02-21T01:26:33;2.78;;;0.28;;
75798;SDS011;65035;44.726;37.764;2023-02-21T01:27:54;1.05;;;0.20;;
75798;SDS011;65035;44.726;37.764;2023-02-21T01:29:15;0.63;;;0.25;;
75798;SDS011;65035;44.726;37.764;2023-02-21T01:30:36;0.93;;;0.20;;
75798;SDS011;65035;44.726;37.764;2023-02-21T01:31:58;0.85;;;0.20;;
75798;SDS011;65035;44.726;37.764;2023-02-21T01:33:19;0.60;;;0.13;;
75798;SDS011;65035;44.726;37.764;2023-02-21T01:34:41;0.80;;;0.05;;
75798;SDS011;65035;44.726;37.764;2023-02-21T01:36:06;0.90;;;0.40;;
75798;SDS011;65035;44.726;37.764;2023-02-21T01:37:28;0.63;;;0.10;;
75798;SDS011;65035;44.726;37.764;2023-02-21T01:38:50;1.02;;;0.55;;
75798;SDS011;65035;44.726;37.764;2023-02-21T01:40:15;0.50;;;0.15;;
75798;SDS011;65035;44.726;37.764;2023-02-21T01:41:36;0.73;;;0.28;;
75798;SDS011;65035;44.726;37.764;2023-02-21T01:42:58;0.98;;;0.20;;
75798;SDS011;65035;44.726;37.764;2023-02-21T01:44:38;0.65;;;0.30;;
75798;SDS011;65035;44.726;37.764;2023-02-21T01:46:01;0.63;;;0.15;;
75798;SDS011;65035;44.726;37.764;2023-02-21T01:47:22;0.80;;;0.22;;
75798;SDS011;65035;44.726;37.764;2023-02-21T01:48:44;1.00;;;0.20;;
75798;SDS011;65035;44.726;37.764;2023-02-21T01:50:29;0.90;;;0.10;;
75798;SDS011;65035;44.726;37.764;2023-02-21T01:51:50;0.60;;;0.30;;
75798;SDS011;65035;44.726;37.764;2023-02-21T01:53:16;0.90;;;0.20;;
75798;SDS011;65035;44.726;37.764;2023-02-21T01:54:45;0.70;;;0.30;;
75798;SDS011;65035;44.726;37.764;2023-02-21T01:56:08;0.63;;;0.20;;
75798;SDS011;65035;44.726;37.764;2023-02-21T01:57:31;0.82;;;0.30;;
75798;SDS011;65035;44.726;37.764;2023-02-21T01:58:54;1.23;;;0.40;;
75798;SDS011;65035;44.726;37.764;2023-02-21T02:00:18;0.90;;;0.20;;
75798;SDS011;65035;44.726;37.764;2023-02-21T02:03:05;1.38;;;0.20;;
75798;SDS011;65035;44.726;37.764;2023-02-21T02:04:29;0.63;;;0.13;;
75798;SDS011;65035;44.726;37.764;2023-02-21T02:05:56;1.08;;;0.10;;
75798;SDS011;65035;44.726;37.764;2023-02-21T02:07:28;0.63;;;0.10;;
75798;SDS011;65035;44.726;37.764;2023-02-21T02:08:50;0.70;;;0.43;;
75798;SDS011;65035;44.726;37.764;2023-02-21T02:10:11;0.82;;;0.20;;
75798;SDS011;65035;44.726;37.764;2023-02-21T02:23:01;1.17;;;0.28;;
75798;SDS011;65035;44.726;37.764;2023-02-21T02:40:45;1.13;;;0.20;;
75798;SDS011;65035;44.726;37.764;2023-02-21T02:42:00;0.60;;;0.10;;
75798;SDS011;65035;44.726;37.764;2023-02-21T02:44:30;0.63;;;0.28;;
75798;SDS011;65035;44.726;37.764;2023-02-21T02:45:48;0.80;;;0.13;;
75798;SDS011;65035;44.726;37.764;2023-02-21T02:46:58;1.20;;;0.20;;
75798;SDS011;65035;44.726;37.764;2023-02-21T02:48:22;0.80;;;0.32;;
75798;SDS011;65035;44.726;37.764;2023-02-21T02:50:35;0.85;;;0.45;;
75798;SDS011;65035;44.726;37.764;2023-02-21T02:51:39;0.88;;;0.20;;
75798;SDS011;65035;44.726;37.764;2023-02-21T02:52:50;1.08;;;0.00;;
75798;SDS011;65035;44.726;37.764;2023-02-21T02:53:56;0.80;;;0.10;;
75798;SDS011;65035;44.726;37.764;2023-02-21T02:55:00;1.40;;;0.10;;
75798;SDS011;65035;44.726;37.764;2023-02-21T02:56:08;1.08;;;0.30;;
75798;SDS011;65035;44.726;37.764;2023-02-21T02:57:14;1.63;;;0.10;;
75798;SDS011;65035;44.726;37.764;2023-02-21T02:58:17;0.93;;;0.10;;
75798;SDS011;65035;44.726;37.764;2023-02-21T02:59:24;0.70;;;0.20;;
75798;SDS011;65035;44.726;37.764;2023-02-21T03:00:30;0.80;;;0.20;;
75798;SDS011;65035;44.726;37.764;2023-02-21T03:08:13;0.63;;;0.05;;
75798;SDS011;65035;44.726;37.764;2023-02-21T03:11:11;0.73;;;0.15;;
75798;SDS011;65035;44.726;37.764;2023-02-21T03:12:37;0.65;;;0.32;;
75798;SDS011;65035;44.726;37.764;2023-02-21T03:14:07;0.63;;;0.15;;
75798;SDS011;65035;44.726;37.764;2023-02-21T03:16:25;0.60;;;0.28;;
75798;SDS011;65035;44.726;37.764;2023-02-21T03:17:30;0.88;;;0.13;;
75798;SDS011;65035;44.726;37.764;2023-02-21T03:18:37;0.88;;;0.20;;
75798;SDS011;65035;44.726;37.764;2023-02-21T03:19:46;1.50;;;0.25;;
75798;SDS011;65035;44.726;37.764;2023-02-21T03:20:53;1.67;;;0.63;;
75798;SDS011;65035;44.726;37.764;2023-02-21T03:22:01;0.98;;;0.15;;
75798;SDS011;65035;44.726;37.764;2023-02-21T03:23:08;0.82;;;0.22;;
75798;SDS011;65035;44.726;37.764;2023-02-21T03:24:14;0.95;;;0.25;;
75798;SDS011;65035;44.726;37.764;2023-02-21T03:25:20;0.70;;;0.08;;
75798;SDS011;65035;44.726;37.764;2023-02-21T03:26:28;0.82;;;0.10;;
75798;SDS011;65035;44.726;37.764;2023-02-21T03:27:46;1.45;;;0.28;;
75798;SDS011;65035;44.726;37.764;2023-02-21T03:28:56;1.33;;;0.38;;
75798;SDS011;65035;44.726;37.764;2023-02-21T03:29:59;0.77;;;0.40;;
75798;SDS011;65035;44.726;37.764;2023-02-21T03:31:07;1.17;;;0.20;;
75798;SDS011;65035;44.726;37.764;2023-02-21T03:33:33;0.70;;;0.20;;
75798;SDS011;65035;44.726;37.764;2023-02-21T03:34:40;2.35;;;0.30;;
75798;SDS011;65035;44.726;37.764;2023-02-21T03:35:47;2.55;;;0.40;;
75798;SDS011;65035;44.726;37.764;2023-02-21T03:36:50;2.33;;;0.60;;
75798;SDS011;65035;44.726;37.764;2023-02-21T03:37:53;1.95;;;0.63;;
75798;SDS011;65035;44.726;37.764;2023-02-21T03:38:58;3.28;;;0.63;;
75798;SDS011;65035;44.726;37.764;2023-02-21T03:40:03;2.40;;;0.20;;
75798;SDS011;65035;44.726;37.764;2023-02-21T03:41:11;1.80;;;0.35;;
75798;SDS011;65035;44.726;37.764;2023-02-21T03:42:15;1.85;;;1.00;;
75798;SDS011;65035;44.726;37.764;2023-02-21T03:43:18;3.25;;;0.50;;
75798;SDS011;65035;44.726;37.764;2023-02-21T03:44:25;1.90;;;0.30;;
75798;SDS011;65035;44.726;37.764;2023-02-21T03:45:28;3.10;;;0.57;;
75798;SDS011;65035;44.726;37.764;2023-02-21T03:46:37;3.45;;;0.52;;
75798;SDS011;65035;44.726;37.764;2023-02-21T03:47:42;2.20;;;0.43;;
75798;SDS011;65035;44.726;37.764;2023-02-21T03:48:44;1.60;;;0.40;;
75798;SDS011;65035;44.726;37.764;2023-02-21T03:49:52;1.50;;;0.25;;
75798;SDS011;65035;44.726;37.764;2023-02-21T03:50:55;1.70;;;0.30;;
75798;SDS011;65035;44.726;37.764;2023-02-21T03:52:02;1.85;;;0.30;;
75798;SDS011;65035;44.726;37.764;2023-02-21T03:53:05;2.50;;;0.52;;
75798;SDS011;65035;44.726;37.764;2023-02-21T03:54:11;1.98;;;0.28;;
75798;SDS011;65035;44.726;37.764;2023-02-21T03:55:18;1.95;;;0.40;;
75798;SDS011;65035;44.726;37.764;2023-02-21T03:56:21;1.73;;;0.52;;
75798;SDS011;65035;44.726;37.764;2023-02-21T03:57:48;2.05;;;0.22;;
75798;SDS011;65035;44.726;37.764;2023-02-21T03:58:51;1.17;;;0.10;;
75798;SDS011;65035;44.726;37.764;2023-02-21T03:59:54;1.33;;;0.15;;
75798;SDS011;65035;44.726;37.764;2023-02-21T04:00:57;1.95;;;0.38;;
75798;SDS011;65035;44.726;37.764;2023-02-21T04:02:00;2.15;;;0.35;;
75798;SDS011;65035;44.726;37.764;2023-02-21T04:03:06;1.75;;;0.43;;
75798;SDS011;65035;44.726;37.764;2023-02-21T04:04:14;2.53;;;0.50;;
75798;SDS011;65035;44.726;37.764;2023-02-21T04:05:17;1.63;;;0.43;;
75798;SDS011;65035;44.726;37.764;2023-02-21T04:06:21;3.17;;;0.40;;
75798;SDS011;65035;44.726;37.764;2023-02-21T04:07:25;2.13;;;0.50;;
75798;SDS011;65035;44.726;37.764;2023-02-21T04:08:28;3.88;;;0.30;;
75798;SDS011;65035;44.726;37.764;2023-02-21T04:09:31;2.55;;;0.35;;
75798;SDS011;65035;44.726;37.764;2023-02-21T04:10:34;6.38;;;0.82;;
75798;SDS011;65035;44.726;37.764;2023-02-21T04:11:47;1.38;;;0.50;;
75798;SDS011;65035;44.726;37.764;2023-02-21T04:12:51;12.02;;;2.45;;
75798;SDS011;65035;44.726;37.764;2023-02-21T04:13:54;4.07;;;0.40;;
75798;SDS011;65035;44.726;37.764;2023-02-21T04:14:57;4.30;;;0.82;;
75798;SDS011;65035;44.726;37.764;2023-02-21T04:16:00;2.95;;;0.40;;
75798;SDS011;65035;44.726;37.764;2023-02-21T04:17:03;7.80;;;1.40;;
75798;SDS011;65035;44.726;37.764;2023-02-21T04:18:06;12.57;;;1.23;;
75798;SDS011;65035;44.726;37.764;2023-02-21T04:19:11;8.30;;;1.30;;
75798;SDS011;65035;44.726;37.764;2023-02-21T04:20:14;13.35;;;2.38;;
75798;SDS011;65035;44.726;37.764;2023-02-21T04:21:23;14.45;;;2.03;;
75798;SDS011;65035;44.726;37.764;2023-02-21T04:22:28;11.07;;;2.17;;
75798;SDS011;65035;44.726;37.764;2023-02-21T04:23:31;16.15;;;2.65;;
75798;SDS011;65035;44.726;37.764;2023-02-21T04:24:34;17.35;;;2.85;;
75798;SDS011;65035;44.726;37.764;2023-02-21T04:25:37;15.27;;;2.25;;
75798;SDS011;65035;44.726;37.764;2023-02-21T04:26:46;12.45;;;2.53;;
75798;SDS011;65035;44.726;37.764;2023-02-21T04:27:49;12.43;;;2.00;;
75798;SDS011;65035;44.726;37.764;2023-02-21T04:28:52;14.23;;;2.65;;
75798;SDS011;65035;44.726;37.764;2023-02-21T04:29:55;14.50;;;2.85;;
75798;SDS011;65035;44.726;37.764;2023-02-21T04:30:58;16.83;;;2.75;;
75798;SDS011;65035;44.726;37.764;2023-02-21T04:32:01;14.13;;;2.85;;
75798;SDS011;65035;44.726;37.764;2023-02-21T04:33:05;17.98;;;2.40;;
75798;SDS011;65035;44.726;37.764;2023-02-21T04:34:09;19.73;;;2.88;;
75798;SDS011;65035;44.726;37.764;2023-02-21T04:35:16;15.95;;;2.60;;
75798;SDS011;65035;44.726;37.764;2023-02-21T04:36:19;11.35;;;2.03;;
75798;SDS011;65035;44.726;37.764;2023-02-21T04:37:23;14.80;;;2.40;;
75798;SDS011;65035;44.726;37.764;2023-02-21T04:39:29;13.00;;;2.03;;
75798;SDS011;65035;44.726;37.764;2023-02-21T04:40:32;13.68;;;2.67;;
75798;SDS011;65035;44.726;37.764;2023-02-21T04:41:35;15.63;;;2.53;;
75798;SDS011;65035;44.726;37.764;2023-02-21T04:42:38;14.85;;;2.28;;
75798;SDS011;65035;44.726;37.764;2023-02-21T04:43:41;10.95;;;2.00;;
75798;SDS011;65035;44.726;37.764;2023-02-21T04:44:45;14.15;;;2.33;;
75798;SDS011;65035;44.726;37.764;2023-02-21T04:46:00;11.38;;;1.75;;
75798;SDS011;65035;44.726;37.764;2023-02-21T04:47:03;13.30;;;1.67;;
75798;SDS011;65035;44.726;37.764;2023-02-21T04:48:06;10.63;;;2.05;;
75798;SDS011;65035;44.726;37.764;2023-02-21T04:49:09;11.38;;;1.40;;
75798;SDS011;65035;44.726;37.764;2023-02-21T04:50:14;10.32;;;2.25;;
75798;SDS011;65035;44.726;37.764;2023-02-21T04:51:18;9.80;;;1.90;;
75798;SDS011;65035;44.726;37.764;2023-02-21T04:52:24;9.90;;;2.13;;
75798;SDS011;65035;44.726;37.764;2023-02-21T04:53:27;10.60;;;2.25;;
75798;SDS011;65035;44.726;37.764;2023-02-21T04:54:29;9.95;;;3.05;;
75798;SDS011;65035;44.726;37.764;2023-02-21T04:55:32;11.18;;;1.90;;
75798;SDS011;65035;44.726;37.764;2023-02-21T04:56:35;11.07;;;1.40;;
75798;SDS011;65035;44.726;37.764;2023-02-21T04:57:39;9.50;;;1.27;;
75798;SDS011;65035;44.726;37.764;2023-02-21T04:58:42;11.13;;;1.55;;
75798;SDS011;65035;44.726;37.764;2023-02-21T04:59:46;9.85;;;1.58;;
75798;SDS011;65035;44.726;37.764;2023-02-21T05:00:49;12.68;;;2.10;;
75798;SDS011;65035;44.726;37.764;2023-02-21T05:01:52;10.25;;;1.48;;
75798;SDS011;65035;44.726;37.764;2023-02-21T05:02:55;7.85;;;1.45;;
75798;SDS011;65035;44.726;37.764;2023-02-21T05:03:58;7.88;;;1.45;;
75798;SDS011;65035;44.726;37.764;2023-02-21T05:05:01;12.02;;;1.67;;
75798;SDS011;65035;44.726;37.764;2023-02-21T05:06:05;10.07;;;1.88;;
75798;SDS011;65035;44.726;37.764;2023-02-21T05:07:08;8.02;;;1.98;;
75798;SDS011;65035;44.726;37.764;2023-02-21T05:08:11;7.63;;;1.52;;
75798;SDS011;65035;44.726;37.764;2023-02-21T05:09:14;11.05;;;1.52;;
75798;SDS011;65035;44.726;37.764;2023-02-21T05:10:17;7.53;;;1.30;;
75798;SDS011;65035;44.726;37.764;2023-02-21T05:11:20;9.77;;;2.03;;
75798;SDS011;65035;44.726;37.764;2023-02-21T05:12:23;7.13;;;1.80;;
75798;SDS011;65035;44.726;37.764;2023-02-21T05:13:26;11.18;;;2.10;;
75798;SDS011;65035;44.726;37.764;2023-02-21T05:14:29;8.77;;;2.45;;
75798;SDS011;65035;44.726;37.764;2023-02-21T05:15:31;8.52;;;1.50;;
75798;SDS011;65035;44.726;37.764;2023-02-21T05:16:35;7.35;;;1.23;;
75798;SDS011;65035;44.726;37.764;2023-02-21T05:17:37;9.02;;;1.42;;
75798;SDS011;65035;44.726;37.764;2023-02-21T05:18:41;7.80;;;2.13;;
75798;SDS011;65035;44.726;37.764;2023-02-21T05:19:45;6.95;;;1.10;;
75798;SDS011;65035;44.726;37.764;2023-02-21T05:20:48;9.00;;;1.63;;
75798;SDS011;65035;44.726;37.764;2023-02-21T05:21:58;6.78;;;1.20;;
75798;SDS011;65035;44.726;37.764;2023-02-21T05:23:02;6.82;;;1.02;;
75798;SDS011;65035;44.726;37.764;2023-02-21T05:24:13;10.20;;;1.48;;
75798;SDS011;65035;44.726;37.764;2023-02-21T05:25:17;6.80;;;1.40;;
75798;SDS011;65035;44.726;37.764;2023-02-21T05:26:23;6.75;;;1.02;;
75798;SDS011;65035;44.726;37.764;2023-02-21T05:27:28;8.75;;;1.42;;
75798;SDS011;65035;44.726;37.764;2023-02-21T05:28:31;10.60;;;1.92;;
75798;SDS011;65035;44.726;37.764;2023-02-21T05:29:34;5.53;;;1.25;;
75798;SDS011;65035;44.726;37.764;2023-02-21T05:30:37;9.70;;;1.42;;
75798;SDS011;65035;44.726;37.764;2023-02-21T05:31:40;6.10;;;0.85;;
75798;SDS011;65035;44.726;37.764;2023-02-21T05:32:43;5.75;;;1.00;;
75798;SDS011;65035;44.726;37.764;2023-02-21T05:33:46;6.47;;;1.10;;
75798;SDS011;65035;44.726;37.764;2023-02-21T05:34:48;6.32;;;0.95;;
75798;SDS011;65035;44.726;37.764;2023-02-21T05:35:51;5.63;;;1.20;;
75798;SDS011;65035;44.726;37.764;2023-02-21T05:36:54;6.43;;;1.20;;
75798;SDS011;65035;44.726;37.764;2023-02-21T05:37:57;5.60;;;1.33;;
75798;SDS011;65035;44.726;37.764;2023-02-21T05:39:00;6.60;;;1.08;;
75798;SDS011;65035;44.726;37.764;2023-02-21T05:40:03;6.72;;;1.45;;
75798;SDS011;65035;44.726;37.764;2023-02-21T05:42:09;5.45;;;1.00;;
75798;SDS011;65035;44.726;37.764;2023-02-21T05:43:12;5.97;;;1.35;;
75798;SDS011;65035;44.726;37.764;2023-02-21T05:44:15;6.00;;;1.05;;
75798;SDS011;65035;44.726;37.764;2023-02-21T05:45:18;5.38;;;1.10;;
75798;SDS011;65035;44.726;37.764;2023-02-21T05:46:25;6.80;;;1.45;;
75798;SDS011;65035;44.726;37.764;2023-02-21T05:47:33;4.72;;;0.95;;
75798;SDS011;65035;44.726;37.764;2023-02-21T05:49:39;5.07;;;0.85;;
75798;SDS011;65035;44.726;37.764;2023-02-21T05:50:42;6.63;;;1.50;;
75798;SDS011;65035;44.726;37.764;2023-02-21T05:51:46;6.00;;;1.13;;
75798;SDS011;65035;44.726;37.764;2023-02-21T05:52:49;8.52;;;0.98;;
75798;SDS011;65035;44.726;37.764;2023-02-21T05:53:52;8.07;;;1.23;;
75798;SDS011;65035;44.726;37.764;2023-02-21T05:54:55;6.05;;;1.17;;
75798;SDS011;65035;44.726;37.764;2023-02-21T05:55:58;5.15;;;0.68;;
75798;SDS011;65035;44.726;37.764;2023-02-21T05:57:01;6.20;;;0.98;;
75798;SDS011;65035;44.726;37.764;2023-02-21T05:58:04;5.90;;;1.00;;
75798;SDS011;65035;44.726;37.764;2023-02-21T05:59:07;3.47;;;0.60;;
75798;SDS011;65035;44.726;37.764;2023-02-21T06:00:23;4.15;;;0.70;;
75798;SDS011;65035;44.726;37.764;2023-02-21T06:01:29;8.30;;;1.17;;
75798;SDS011;65035;44.726;37.764;2023-02-21T06:02:31;5.15;;;0.90;;
75798;SDS011;65035;44.726;37.764;2023-02-21T06:03:34;6.70;;;1.27;;
75798;SDS011;65035;44.726;37.764;2023-02-21T06:04:37;5.03;;;0.80;;
75798;SDS011;65035;44.726;37.764;2023-02-21T06:05:40;5.05;;;0.55;;
75798;SDS011;65035;44.726;37.764;2023-02-21T06:06:43;6.65;;;1.23;;
75798;SDS011;65035;44.726;37.764;2023-02-21T06:07:46;8.60;;;0.68;;
75798;SDS011;65035;44.726;37.764;2023-02-21T06:08:49;6.93;;;1.20;;
75798;SDS011;65035;44.726;37.764;2023-02-21T06:09:52;7.10;;;1.20;;
75798;SDS011;65035;44.726;37.764;2023-02-21T06:10:54;3.70;;;0.75;;
75798;SDS011;65035;44.726;37.764;2023-02-21T06:11:57;4.68;;;1.00;;
75798;SDS011;65035;44.726;37.764;2023-02-21T06:13:00;6.13;;;1.80;;
75798;SDS011;65035;44.726;37.764;2023-02-21T06:14:04;4.53;;;0.77;;
75798;SDS011;65035;44.726;37.764;2023-02-21T06:15:09;4.97;;;0.57;;
75798;SDS011;65035;44.726;37.764;2023-02-21T06:16:13;5.32;;;1.00;;
75798;SDS011;65035;44.726;37.764;2023-02-21T06:17:16;5.25;;;0.55;;
75798;SDS011;65035;44.726;37.764;2023-02-21T06:18:19;6.93;;;1.27;;
75798;SDS011;65035;44.726;37.764;2023-02-21T06:19:22;6.03;;;0.88;;
75798;SDS011;65035;44.726;37.764;2023-02-21T06:20:25;5.07;;;0.60;;
75798;SDS011;65035;44.726;37.764;2023-02-21T06:21:27;4.03;;;0.85;;
75798;SDS011;65035;44.726;37.764;2023-02-21T06:22:30;3.53;;;0.65;;
75798;SDS011;65035;44.726;37.764;2023-02-21T06:23:33;4.50;;;0.50;;
75798;SDS011;65035;44.726;37.764;2023-02-21T06:24:36;5.13;;;1.23;;
75798;SDS011;65035;44.726;37.764;2023-02-21T06:25:38;2.85;;;1.67;;
75798;SDS011;65035;44.726;37.764;2023-02-21T06:26:41;4.43;;;0.70;;
75798;SDS011;65035;44.726;37.764;2023-02-21T06:27:44;5.00;;;0.75;;
75798;SDS011;65035;44.726;37.764;2023-02-21T06:28:47;4.15;;;0.40;;
75798;SDS011;65035;44.726;37.764;2023-02-21T06:29:51;4.82;;;1.00;;
75798;SDS011;65035;44.726;37.764;2023-02-21T06:30:54;5.63;;;0.73;;
75798;SDS011;65035;44.726;37.764;2023-02-21T06:31:57;3.92;;;0.75;;
75798;SDS011;65035;44.726;37.764;2023-02-21T06:33:01;3.65;;;0.85;;
75798;SDS011;65035;44.726;37.764;2023-02-21T06:34:04;3.90;;;0.80;;
75798;SDS011;65035;44.726;37.764;2023-02-21T06:35:07;5.18;;;0.65;;
75798;SDS011;65035;44.726;37.764;2023-02-21T06:36:14;2.53;;;0.40;;
75798;SDS011;65035;44.726;37.764;2023-02-21T06:37:22;4.60;;;0.75;;
75798;SDS011;65035;44.726;37.764;2023-02-21T06:38:25;4.65;;;0.88;;
75798;SDS011;65035;44.726;37.764;2023-02-21T06:39:28;4.57;;;1.20;;
75798;SDS011;65035;44.726;37.764;2023-02-21T06:40:31;4.00;;;0.70;;
75798;SDS011;65035;44.726;37.764;2023-02-21T06:41:33;4.28;;;0.50;;
75798;SDS011;65035;44.726;37.764;2023-02-21T06:42:36;5.18;;;0.80;;
75798;SDS011;65035;44.726;37.764;2023-02-21T06:43:39;4.15;;;0.70;;
75798;SDS011;65035;44.726;37.764;2023-02-21T06:44:43;3.90;;;0.73;;
75798;SDS011;65035;44.726;37.764;2023-02-21T06:45:47;3.83;;;0.73;;
75798;SDS011;65035;44.726;37.764;2023-02-21T06:46:49;3.65;;;0.38;;
75798;SDS011;65035;44.726;37.764;2023-02-21T06:47:52;4.00;;;0.60;;
75798;SDS011;65035;44.726;37.764;2023-02-21T06:48:55;1.98;;;0.30;;
75798;SDS011;65035;44.726;37.764;2023-02-21T06:49:58;3.65;;;0.70;;
75798;SDS011;65035;44.726;37.764;2023-02-21T06:51:01;4.63;;;0.90;;
75798;SDS011;65035;44.726;37.764;2023-02-21T06:52:04;3.92;;;0.70;;
75798;SDS011;65035;44.726;37.764;2023-02-21T06:54:10;3.28;;;0.38;;
75798;SDS011;65035;44.726;37.764;2023-02-21T06:55:18;5.32;;;0.75;;
75798;SDS011;65035;44.726;37.764;2023-02-21T06:56:25;4.10;;;0.47;;
75798;SDS011;65035;44.726;37.764;2023-02-21T06:57:28;4.13;;;0.60;;
75798;SDS011;65035;44.726;37.764;2023-02-21T06:58:31;3.78;;;0.73;;
75798;SDS011;65035;44.726;37.764;2023-02-21T06:59:34;3.40;;;0.50;;
75798;SDS011;65035;44.726;37.764;2023-02-21T07:00:37;4.40;;;0.52;;
75798;SDS011;65035;44.726;37.764;2023-02-21T07:01:40;3.97;;;0.80;;
75798;SDS011;65035;44.726;37.764;2023-02-21T07:02:43;3.20;;;0.85;;
75798;SDS011;65035;44.726;37.764;2023-02-21T07:03:46;3.53;;;0.60;;
75798;SDS011;65035;44.726;37.764;2023-02-21T07:04:49;3.20;;;0.50;;
75798;SDS011;65035;44.726;37.764;2023-02-21T07:05:52;2.30;;;0.85;;
75798;SDS011;65035;44.726;37.764;2023-02-21T07:06:55;2.88;;;0.50;;
75798;SDS011;65035;44.726;37.764;2023-02-21T07:07:58;5.18;;;0.63;;
75798;SDS011;65035;44.726;37.764;2023-02-21T07:09:01;3.30;;;0.68;;
75798;SDS011;65035;44.726;37.764;2023-02-21T07:10:04;3.42;;;1.33;;
75798;SDS011;65035;44.726;37.764;2023-02-21T07:11:07;3.20;;;0.50;;
75798;SDS011;65035;44.726;37.764;2023-02-21T07:12:10;2.72;;;0.35;;
75798;SDS011;65035;44.726;37.764;2023-02-21T07:13:13;3.50;;;0.50;;
75798;SDS011;65035;44.726;37.764;2023-02-21T07:14:16;2.90;;;0.63;;
75798;SDS011;65035;44.726;37.764;2023-02-21T07:15:19;2.88;;;0.65;;
75798;SDS011;65035;44.726;37.764;2023-02-21T07:16:22;2.97;;;0.55;;
75798;SDS011;65035;44.726;37.764;2023-02-21T07:17:25;3.15;;;0.50;;
75798;SDS011;65035;44.726;37.764;2023-02-21T07:18:28;4.57;;;0.73;;
75798;SDS011;65035;44.726;37.764;2023-02-21T07:19:31;4.00;;;0.95;;
75798;SDS011;65035;44.726;37.764;2023-02-21T07:20:34;2.30;;;0.90;;
75798;SDS011;65035;44.726;37.764;2023-02-21T07:21:37;3.63;;;0.82;;
75798;SDS011;65035;44.726;37.764;2023-02-21T07:22:42;3.78;;;0.68;;
75798;SDS011;65035;44.726;37.764;2023-02-21T07:23:45;5.18;;;0.75;;
75798;SDS011;65035;44.726;37.764;2023-02-21T07:24:49;2.60;;;0.55;;
75798;SDS011;65035;44.726;37.764;2023-02-21T07:25:51;3.22;;;0.60;;
75798;SDS011;65035;44.726;37.764;2023-02-21T07:26:54;2.63;;;0.52;;
75798;SDS011;65035;44.726;37.764;2023-02-21T07:27:57;2.42;;;0.40;;
75798;SDS011;65035;44.726;37.764;2023-02-21T07:29:00;2.95;;;0.50;;
75798;SDS011;65035;44.726;37.764;2023-02-21T07:30:03;3.45;;;0.40;;
75798;SDS011;65035;44.726;37.764;2023-02-21T07:32:09;4.00;;;0.55;;
75798;SDS011;65035;44.726;37.764;2023-02-21T07:33:12;3.45;;;0.40;;
75798;SDS011;65035;44.726;37.764;2023-02-21T07:34:14;2.90;;;1.05;;
75798;SDS011;65035;44.726;37.764;2023-02-21T07:35:17;2.00;;;0.70;;
75798;SDS011;65035;44.726;37.764;2023-02-21T07:36:20;2.78;;;0.88;;
75798;SDS011;65035;44.726;37.764;2023-02-21T07:37:24;2.35;;;0.50;;
75798;SDS011;65035;44.726;37.764;2023-02-21T07:38:29;2.40;;;0.55;;
75798;SDS011;65035;44.726;37.764;2023-02-21T07:39:32;3.42;;;0.32;;